Time;durP1;ratioP1;P1;durP2;ratioP2;P2;SDS_P1;SDS_P2;PMS_P1;PMS_P2;Temp;Humidity;BMP_temperature;BMP_pressure;BME280_temperature;BME280_humidity;BME280_pressure;Samples;Min_cycle;Max_cycle;Signal;HPM_P1;HPM_P2
2021/12/18 00:09:48;;;;;;;12.83;5.98;;;;;;;4.27;100.00;102002.80;714261;1190;114085;-75
2021/12/18 00:24:50;;;;;;;30.08;11.35;;;;;;;4.34;100.00;102006.86;714317;1199;114790;-75
2021/12/18 00:39:57;;;;;;;14.60;5.93;;;;;;;4.40;100.00;102005.83;713911;1199;114048;-75
2021/12/18 00:55:00;;;;;;;17.37;5.87;;;;;;;4.23;100.00;102021.98;714028;1199;114422;-74
2021/12/18 01:25:07;;;;;;;19.50;6.58;;;;;;;4.20;100.00;102027.27;714126;1199;114030;-75
2021/12/18 01:40:10;;;;;;;14.03;5.53;;;;;;;4.10;100.00;102024.98;714055;1200;113982;-75
2021/12/18 01:55:12;;;;;;;16.38;6.90;;;;;;;3.89;100.00;101995.37;713881;1203;115192;-74
2021/12/18 02:10:20;;;;;;;18.10;7.37;;;;;;;3.64;100.00;101992.72;714101;1200;114249;-74
2021/12/18 02:25:24;;;;;;;23.13;8.18;;;;;;;3.35;100.00;101973.71;714060;1179;113968;-75
2021/12/18 02:55:54;;;;;;;19.13;9.13;;;;;;;3.36;100.00;101961.61;714415;1202;113956;-73
2021/12/18 03:26:37;;;;;;;22.38;10.15;;;;;;;2.99;100.00;101981.71;713423;1202;115693;-73
2021/12/18 03:41:39;;;;;;;26.35;12.20;;;;;;;2.76;100.00;101962.48;714193;1199;114276;-74
2021/12/18 03:56:41;;;;;;;22.65;11.05;;;;;;;2.46;100.00;101966.78;714196;1200;115374;-74
2021/12/18 04:11:43;;;;;;;15.60;8.23;;;;;;;2.53;100.00;101968.30;714182;1188;114316;-75
2021/12/18 04:26:46;;;;;;;15.48;8.20;;;;;;;2.63;100.00;101974.09;714011;1203;113953;-74
2021/12/18 04:41:51;;;;;;;16.17;7.90;;;;;;;2.45;100.00;101950.38;714122;1203;114481;-74
2021/12/18 04:56:53;;;;;;;20.00;9.03;;;;;;;2.51;100.00;101926.06;713880;1203;114147;-74
2021/12/18 05:11:56;;;;;;;18.00;8.05;;;;;;;2.54;100.00;101912.17;714290;1200;113988;-74
2021/12/18 05:26:59;;;;;;;21.73;8.60;;;;;;;2.64;100.00;101913.61;714556;1200;114131;-74
2021/12/18 05:42:01;;;;;;;18.65;7.43;;;;;;;2.66;100.00;101915.23;714267;1202;114224;-74
2021/12/18 05:57:09;;;;;;;23.55;9.95;;;;;;;2.77;100.00;101899.39;714430;1177;114325;-73
2021/12/18 06:12:12;;;;;;;26.00;11.38;;;;;;;2.90;100.00;101886.89;714708;1182;113973;-75
2021/12/18 06:27:14;;;;;;;37.08;14.25;;;;;;;3.05;100.00;101877.81;714329;1199;114071;-74
2021/12/18 06:42:17;;;;;;;31.35;14.00;;;;;;;3.19;100.00;101863.56;714449;1183;114370;-74
2021/12/18 06:57:22;;;;;;;38.00;15.00;;;;;;;3.33;100.00;101832.84;715297;1178;114500;-74
2021/12/18 07:12:24;;;;;;;34.10;15.37;;;;;;;3.46;100.00;101810.77;718396;1200;114032;-74
2021/12/18 07:27:26;;;;;;;64.10;30.87;;;;;;;3.58;100.00;101773.17;719733;1202;115114;-74
2021/12/18 07:42:29;;;;;;;48.35;25.33;;;;;;;3.79;100.00;101807.91;715827;1178;114530;-74
2021/12/18 07:57:31;;;;;;;43.87;21.03;;;;;;;3.92;100.00;101787.55;714688;1200;114213;-74
2021/12/18 08:12:33;;;;;;;69.07;29.67;;;;;;;4.02;100.00;101766.44;714591;1202;114997;-74
2021/12/18 08:27:35;;;;;;;34.38;15.35;;;;;;;4.09;100.00;101760.97;715036;1190;115737;-78
2021/12/18 08:42:38;;;;;;;32.93;12.20;;;;;;;4.17;100.00;101750.30;714536;1177;114964;-78
2021/12/18 08:57:40;;;;;;;38.50;16.63;;;;;;;4.26;100.00;101733.49;714595;1202;114889;-77
2021/12/18 09:12:43;;;;;;;35.50;14.47;;;;;;;4.33;100.00;101699.42;714645;1200;114282;-79
2021/12/18 09:27:45;;;;;;;58.03;26.00;;;;;;;4.54;100.00;101696.03;714320;1177;114147;-77
2021/12/18 09:42:48;;;;;;;51.17;27.57;;;;;;;4.68;100.00;101666.89;714358;1199;114588;-78
2021/12/18 09:57:58;;;;;;;45.35;22.13;;;;;;;4.92;100.00;101642.47;714570;1203;114898;-77
2021/12/18 10:13:21;;;;;;;92.93;41.23;;;;;;;5.05;100.00;101614.14;715064;1179;114065;-77
2021/12/18 10:28:24;;;;;;;67.58;26.40;;;;;;;5.15;100.00;101602.42;714265;1200;114088;-75
2021/12/18 10:43:46;;;;;;;63.18;23.83;;;;;;;5.39;100.00;101576.22;714707;1203;114749;-73
2021/12/18 10:58:53;;;;;;;48.23;22.63;;;;;;;5.54;100.00;101574.66;714666;1178;114901;-72
2021/12/18 11:13:55;;;;;;;39.28;17.85;;;;;;;5.59;100.00;101548.42;714847;1178;114790;-71
2021/12/18 11:29:01;;;;;;;30.08;14.88;;;;;;;5.61;100.00;101552.64;714645;1199;114338;-71
2021/12/18 11:44:30;;;;;;;34.30;15.23;;;;;;;5.59;100.00;101545.83;719953;1177;114736;-74
2021/12/18 11:59:41;;;;;;;26.05;12.78;;;;;;;5.49;100.00;101517.63;714838;1199;114038;-74
2021/12/18 12:14:43;;;;;;;43.63;17.88;;;;;;;5.54;100.00;101480.95;714840;1176;115207;-73
2021/12/18 12:29:49;;;;;;;47.48;20.03;;;;;;;5.55;100.00;101458.38;714883;1176;114337;-74
2021/12/18 12:45:01;;;;;;;42.25;20.60;;;;;;;5.60;100.00;101446.82;714050;1199;113881;-74
2021/12/18 13:00:06;;;;;;;53.25;23.70;;;;;;;5.63;100.00;101432.81;714053;1200;114285;-72
2021/12/18 13:15:11;;;;;;;36.73;17.03;;;;;;;5.61;100.00;101422.48;714057;1205;114227;-73
2021/12/18 13:30:17;;;;;;;64.90;24.10;;;;;;;5.67;100.00;101397.89;714341;1181;114033;-74
2021/12/18 13:45:19;;;;;;;33.70;16.50;;;;;;;5.61;100.00;101375.62;714016;1200;114619;-74
2021/12/18 14:00:22;;;;;;;28.77;13.47;;;;;;;5.57;100.00;101360.21;714074;1203;114017;-74
2021/12/18 14:15:25;;;;;;;43.18;19.73;;;;;;;5.82;100.00;101363.28;714698;1203;114264;-75
2021/12/18 14:30:32;;;;;;;31.70;14.00;;;;;;;5.83;100.00;101341.53;714412;1174;114401;-75
2021/12/18 14:45:35;;;;;;;46.58;21.90;;;;;;;5.83;100.00;101320.70;714287;1200;115298;-75
2021/12/18 15:00:54;;;;;;;33.55;16.95;;;;;;;5.88;100.00;101285.76;714222;1202;114495;-76
2021/12/18 15:16:27;;;;;;;56.70;26.33;;;;;;;6.01;100.00;101279.01;714349;1200;115733;-78
2021/12/18 15:31:30;;;;;;;89.80;36.63;;;;;;;6.02;100.00;101246.83;714183;1200;115133;-75
2021/12/18 15:46:33;;;;;;;46.00;22.98;;;;;;;6.17;100.00;101239.94;714251;1200;113801;-74
2021/12/18 16:01:36;;;;;;;26.78;13.88;;;;;;;6.29;100.00;101243.64;714388;1177;114142;-74
2021/12/18 16:16:39;;;;;;;161.33;79.33;;;;;;;6.32;100.00;101213.05;714428;1199;115933;-73
2021/12/18 16:31:42;;;;;;;122.63;46.05;;;;;;;6.40;100.00;101188.31;714270;1176;114671;-73
2021/12/18 16:46:45;;;;;;;134.43;54.10;;;;;;;6.48;100.00;101168.72;714156;1203;114903;-73
2021/12/18 17:01:47;;;;;;;70.27;26.73;;;;;;;6.53;100.00;101163.23;714362;1201;115685;-74
2021/12/18 17:16:49;;;;;;;64.23;27.47;;;;;;;6.61;100.00;101134.97;714119;1177;114279;-73
2021/12/18 17:31:52;;;;;;;66.45;25.55;;;;;;;6.69;100.00;101131.92;714354;1199;114279;-74
2021/12/18 17:46:55;;;;;;;57.78;21.45;;;;;;;6.73;100.00;101104.73;714292;1176;114248;-74
2021/12/18 18:01:58;;;;;;;66.50;25.80;;;;;;;6.77;100.00;101093.19;714394;1200;115180;-73
2021/12/18 18:17:01;;;;;;;98.30;35.58;;;;;;;6.85;100.00;101068.41;714282;1203;116278;-74
2021/12/18 18:32:03;;;;;;;31.33;15.93;;;;;;;6.87;100.00;101056.95;714863;1191;114069;-74
2021/12/18 18:47:13;;;;;;;45.00;20.55;;;;;;;6.88;100.00;101040.38;714353;1200;114256;-74
2021/12/18 19:02:17;;;;;;;43.45;20.50;;;;;;;6.80;100.00;101030.41;714630;1204;114128;-74
2021/12/18 19:17:22;;;;;;;74.00;29.20;;;;;;;6.74;100.00;101022.11;714368;1177;114380;-74
2021/12/18 19:32:25;;;;;;;33.58;17.70;;;;;;;6.57;100.00;100977.05;714596;1200;114969;-73
2021/12/18 19:47:28;;;;;;;27.55;15.90;;;;;;;6.52;100.00;100942.59;714341;1200;114560;-73
2021/12/18 20:02:33;;;;;;;29.53;14.30;;;;;;;6.45;100.00;100918.67;714614;1178;114433;-75
2021/12/18 20:17:39;;;;;;;31.35;17.18;;;;;;;6.52;100.00;100900.89;714480;1200;116473;-71
2021/12/18 20:32:43;;;;;;;21.13;12.60;;;;;;;6.35;100.00;100898.45;715265;1177;114330;-71
2021/12/18 20:47:45;;;;;;;11.73;7.80;;;;;;;6.40;100.00;100876.41;714743;1177;114992;-70
2021/12/18 21:02:49;;;;;;;19.93;11.08;;;;;;;6.33;100.00;100846.42;714419;1199;115531;-71
2021/12/18 21:17:52;;;;;;;25.27;13.83;;;;;;;6.26;100.00;100855.56;714306;1200;114228;-71
2021/12/18 21:32:54;;;;;;;22.28;11.53;;;;;;;6.22;100.00;100801.97;714404;1196;114412;-71
2021/12/18 21:48:00;;;;;;;14.43;9.20;;;;;;;6.26;100.00;100785.21;714500;1177;114225;-70
2021/12/18 22:03:03;;;;;;;22.27;12.23;;;;;;;6.06;100.00;100755.16;714343;1200;115772;-71
2021/12/18 22:18:06;;;;;;;22.53;11.07;;;;;;;6.03;100.00;100714.54;714203;1203;115105;-71
2021/12/18 22:33:09;;;;;;;18.87;8.40;;;;;;;5.95;100.00;100681.13;714953;1176;114261;-71
2021/12/18 22:48:11;;;;;;;21.83;10.93;;;;;;;6.03;100.00;100648.56;714412;1199;115660;-70
2021/12/18 23:03:14;;;;;;;11.18;6.58;;;;;;;5.91;100.00;100624.95;714259;1205;115718;-71
2021/12/18 23:18:41;;;;;;;12.03;6.45;;;;;;;5.90;100.00;100596.39;713847;1178;114642;-72
2021/12/18 23:33:42;;;;;;;14.03;7.40;;;;;;;5.81;100.00;100549.17;713708;1205;114871;-71
2021/12/18 23:48:44;;;;;;;13.43;8.23;;;;;;;5.89;100.00;100543.48;713806;1201;115739;-72
